sensor_id;sensor_type;location;lat;lon;timestamp;P1;durP1;ratioP1;P2;durP2;ratioP2
962;SDS011;469;48.770;9.176;2022-11-02T00:01:17;13.77;;;2.28;;
962;SDS011;469;48.770;9.176;2022-11-02T00:03:45;6.53;;;2.00;;
962;SDS011;469;48.770;9.176;2022-11-02T00:06:12;7.03;;;2.88;;
962;SDS011;469;48.770;9.176;2022-11-02T00:08:40;9.13;;;2.65;;
962;SDS011;469;48.770;9.176;2022-11-02T00:11:10;7.78;;;2.28;;
962;SDS011;469;48.770;9.176;2022-11-02T00:13:39;11.85;;;2.58;;
962;SDS011;469;48.770;9.176;2022-11-02T00:16:07;6.38;;;2.20;;
962;SDS011;469;48.770;9.176;2022-11-02T00:18:37;7.95;;;2.35;;
962;SDS011;469;48.770;9.176;2022-11-02T00:21:04;9.40;;;2.40;;
962;SDS011;469;48.770;9.176;2022-11-02T00:23:32;10.32;;;3.03;;
962;SDS011;469;48.770;9.176;2022-11-02T00:25:59;7.47;;;2.72;;
962;SDS011;469;48.770;9.176;2022-11-02T00:28:27;12.25;;;3.08;;
962;SDS011;469;48.770;9.176;2022-11-02T00:30:55;11.40;;;2.83;;
962;SDS011;469;48.770;9.176;2022-11-02T00:33:23;7.50;;;2.30;;
962;SDS011;469;48.770;9.176;2022-11-02T00:35:50;14.15;;;2.60;;
962;SDS011;469;48.770;9.176;2022-11-02T00:38:18;8.52;;;2.20;;
962;SDS011;469;48.770;9.176;2022-11-02T00:40:45;9.68;;;2.60;;
962;SDS011;469;48.770;9.176;2022-11-02T00:43:12;10.80;;;2.50;;
962;SDS011;469;48.770;9.176;2022-11-02T00:45:40;11.27;;;2.50;;
962;SDS011;469;48.770;9.176;2022-11-02T00:48:08;8.18;;;2.10;;
962;SDS011;469;48.770;9.176;2022-11-02T00:50:35;7.22;;;2.60;;
962;SDS011;469;48.770;9.176;2022-11-02T00:53:03;9.73;;;2.20;;
962;SDS011;469;48.770;9.176;2022-11-02T00:55:32;8.52;;;2.45;;
962;SDS011;469;48.770;9.176;2022-11-02T00:57:59;11.93;;;2.30;;
962;SDS011;469;48.770;9.176;2022-11-02T01:00:26;8.38;;;2.33;;
962;SDS011;469;48.770;9.176;2022-11-02T01:02:58;8.40;;;2.35;;
962;SDS011;469;48.770;9.176;2022-11-02T01:05:31;9.15;;;2.33;;
962;SDS011;469;48.770;9.176;2022-11-02T01:08:10;12.23;;;2.55;;
962;SDS011;469;48.770;9.176;2022-11-02T01:10:37;9.43;;;2.60;;
962;SDS011;469;48.770;9.176;2022-11-02T01:13:05;8.48;;;2.10;;
962;SDS011;469;48.770;9.176;2022-11-02T01:15:35;7.40;;;1.92;;
962;SDS011;469;48.770;9.176;2022-11-02T01:18:02;6.65;;;2.50;;
962;SDS011;469;48.770;9.176;2022-11-02T01:20:31;9.20;;;2.17;;
962;SDS011;469;48.770;9.176;2022-11-02T01:22:58;5.47;;;1.92;;
962;SDS011;469;48.770;9.176;2022-11-02T01:25:26;6.82;;;1.92;;
962;SDS011;469;48.770;9.176;2022-11-02T01:27:53;6.20;;;2.40;;
962;SDS011;469;48.770;9.176;2022-11-02T01:30:20;6.07;;;2.10;;
962;SDS011;469;48.770;9.176;2022-11-02T01:32:47;8.50;;;2.10;;
962;SDS011;469;48.770;9.176;2022-11-02T01:35:14;13.13;;;1.98;;
962;SDS011;469;48.770;9.176;2022-11-02T01:37:43;6.63;;;2.10;;
962;SDS011;469;48.770;9.176;2022-11-02T01:40:13;8.35;;;2.35;;
962;SDS011;469;48.770;9.176;2022-11-02T01:42:41;13.68;;;2.58;;
962;SDS011;469;48.770;9.176;2022-11-02T01:45:08;10.15;;;2.13;;
962;SDS011;469;48.770;9.176;2022-11-02T01:47:43;12.02;;;2.75;;
962;SDS011;469;48.770;9.176;2022-11-02T01:50:13;10.05;;;2.30;;
962;SDS011;469;48.770;9.176;2022-11-02T01:52:43;6.65;;;2.63;;
962;SDS011;469;48.770;9.176;2022-11-02T01:55:14;13.07;;;2.33;;
962;SDS011;469;48.770;9.176;2022-11-02T01:57:44;7.13;;;2.10;;
962;SDS011;469;48.770;9.176;2022-11-02T02:00:19;6.55;;;2.03;;
962;SDS011;469;48.770;9.176;2022-11-02T02:02:54;7.15;;;1.88;;
962;SDS011;469;48.770;9.176;2022-11-02T02:05:25;9.65;;;2.00;;
962;SDS011;469;48.770;9.176;2022-11-02T02:07:55;3.65;;;1.85;;
962;SDS011;469;48.770;9.176;2022-11-02T02:10:28;4.68;;;2.15;;
962;SDS011;469;48.770;9.176;2022-11-02T02:12:55;7.47;;;2.45;;
962;SDS011;469;48.770;9.176;2022-11-02T02:15:24;5.95;;;2.10;;
962;SDS011;469;48.770;9.176;2022-11-02T02:18:07;10.15;;;1.88;;
962;SDS011;469;48.770;9.176;2022-11-02T02:20:41;6.82;;;2.22;;
962;SDS011;469;48.770;9.176;2022-11-02T02:23:32;5.40;;;1.80;;
962;SDS011;469;48.770;9.176;2022-11-02T02:26:22;7.60;;;2.00;;
962;SDS011;469;48.770;9.176;2022-11-02T02:28:58;8.07;;;1.95;;
962;SDS011;469;48.770;9.176;2022-11-02T02:31:28;11.88;;;2.30;;
962;SDS011;469;48.770;9.176;2022-11-02T02:34:03;8.35;;;2.28;;
962;SDS011;469;48.770;9.176;2022-11-02T02:36:38;8.68;;;2.00;;
962;SDS011;469;48.770;9.176;2022-11-02T02:39:09;12.20;;;2.05;;
962;SDS011;469;48.770;9.176;2022-11-02T02:41:38;3.47;;;1.70;;
962;SDS011;469;48.770;9.176;2022-11-02T02:44:07;10.10;;;2.33;;
962;SDS011;469;48.770;9.176;2022-11-02T02:46:38;6.38;;;1.88;;
962;SDS011;469;48.770;9.176;2022-11-02T02:49:07;7.18;;;2.05;;
962;SDS011;469;48.770;9.176;2022-11-02T02:51:36;8.98;;;2.20;;
962;SDS011;469;48.770;9.176;2022-11-02T02:54:05;10.20;;;2.00;;
962;SDS011;469;48.770;9.176;2022-11-02T02:56:34;8.70;;;2.00;;
962;SDS011;469;48.770;9.176;2022-11-02T02:59:04;4.80;;;2.47;;
962;SDS011;469;48.770;9.176;2022-11-02T03:01:33;11.75;;;3.45;;
962;SDS011;469;48.770;9.176;2022-11-02T03:04:01;6.28;;;2.10;;
962;SDS011;469;48.770;9.176;2022-11-02T03:06:28;9.15;;;1.88;;
962;SDS011;469;48.770;9.176;2022-11-02T03:09:01;6.80;;;1.98;;
962;SDS011;469;48.770;9.176;2022-11-02T03:11:31;8.90;;;2.28;;
962;SDS011;469;48.770;9.176;2022-11-02T03:14:01;6.53;;;2.00;;
962;SDS011;469;48.770;9.176;2022-11-02T03:16:37;8.27;;;2.17;;
962;SDS011;469;48.770;9.176;2022-11-02T03:19:10;5.03;;;2.08;;
962;SDS011;469;48.770;9.176;2022-11-02T03:21:40;12.75;;;2.58;;
962;SDS011;469;48.770;9.176;2022-11-02T03:24:12;7.05;;;1.90;;
962;SDS011;469;48.770;9.176;2022-11-02T03:26:42;7.78;;;1.60;;
962;SDS011;469;48.770;9.176;2022-11-02T03:29:10;6.40;;;1.83;;
962;SDS011;469;48.770;9.176;2022-11-02T03:31:44;4.55;;;1.60;;
962;SDS011;469;48.770;9.176;2022-11-02T03:34:17;5.97;;;2.47;;
962;SDS011;469;48.770;9.176;2022-11-02T03:36:50;7.25;;;2.25;;
962;SDS011;469;48.770;9.176;2022-11-02T03:39:21;7.97;;;1.67;;
962;SDS011;469;48.770;9.176;2022-11-02T03:41:50;8.60;;;1.98;;
962;SDS011;469;48.770;9.176;2022-11-02T03:44:19;9.07;;;2.38;;
962;SDS011;469;48.770;9.176;2022-11-02T03:46:53;5.30;;;1.95;;
962;SDS011;469;48.770;9.176;2022-11-02T03:49:27;4.18;;;1.70;;
962;SDS011;469;48.770;9.176;2022-11-02T03:51:59;6.88;;;2.25;;
962;SDS011;469;48.770;9.176;2022-11-02T03:54:34;10.27;;;2.17;;
962;SDS011;469;48.770;9.176;2022-11-02T03:57:16;10.05;;;2.38;;
962;SDS011;469;48.770;9.176;2022-11-02T03:59:44;6.70;;;1.80;;
962;SDS011;469;48.770;9.176;2022-11-02T04:02:13;5.30;;;1.80;;
962;SDS011;469;48.770;9.176;2022-11-02T04:04:48;9.00;;;2.30;;
962;SDS011;469;48.770;9.176;2022-11-02T04:07:16;8.23;;;2.40;;
962;SDS011;469;48.770;9.176;2022-11-02T04:09:48;5.35;;;2.00;;
962;SDS011;469;48.770;9.176;2022-11-02T04:12:18;3.65;;;2.25;;
962;SDS011;469;48.770;9.176;2022-11-02T04:15:20;3.53;;;1.42;;
962;SDS011;469;48.770;9.176;2022-11-02T04:17:49;10.65;;;2.20;;
962;SDS011;469;48.770;9.176;2022-11-02T04:20:30;4.78;;;1.80;;
962;SDS011;469;48.770;9.176;2022-11-02T04:22:58;11.75;;;2.33;;
962;SDS011;469;48.770;9.176;2022-11-02T04:25:43;11.07;;;2.10;;
962;SDS011;469;48.770;9.176;2022-11-02T04:28:10;5.63;;;2.28;;
962;SDS011;469;48.770;9.176;2022-11-02T04:30:40;8.98;;;2.00;;
962;SDS011;469;48.770;9.176;2022-11-02T04:33:09;8.23;;;2.67;;
962;SDS011;469;48.770;9.176;2022-11-02T04:35:57;6.68;;;2.03;;
962;SDS011;469;48.770;9.176;2022-11-02T04:38:25;6.22;;;2.08;;
962;SDS011;469;48.770;9.176;2022-11-02T04:41:07;7.13;;;2.10;;
962;SDS011;469;48.770;9.176;2022-11-02T04:43:55;7.65;;;1.95;;
962;SDS011;469;48.770;9.176;2022-11-02T04:46:23;5.55;;;2.10;;
962;SDS011;469;48.770;9.176;2022-11-02T04:48:52;10.75;;;2.47;;
962;SDS011;469;48.770;9.176;2022-11-02T04:51:20;8.68;;;2.00;;
962;SDS011;469;48.770;9.176;2022-11-02T04:53:51;11.80;;;2.88;;
962;SDS011;469;48.770;9.176;2022-11-02T04:56:20;6.13;;;1.85;;
962;SDS011;469;48.770;9.176;2022-11-02T04:58:48;3.70;;;1.95;;
962;SDS011;469;48.770;9.176;2022-11-02T05:01:15;8.93;;;3.55;;
962;SDS011;469;48.770;9.176;2022-11-02T05:03:45;12.45;;;3.90;;
962;SDS011;469;48.770;9.176;2022-11-02T05:06:17;11.20;;;3.13;;
962;SDS011;469;48.770;9.176;2022-11-02T05:08:45;11.95;;;3.13;;
962;SDS011;469;48.770;9.176;2022-11-02T05:11:12;6.72;;;2.60;;
962;SDS011;469;48.770;9.176;2022-11-02T05:13:40;6.72;;;2.40;;
962;SDS011;469;48.770;9.176;2022-11-02T05:16:09;9.15;;;2.78;;
962;SDS011;469;48.770;9.176;2022-11-02T05:18:37;10.45;;;2.40;;
962;SDS011;469;48.770;9.176;2022-11-02T05:21:05;4.55;;;2.28;;
962;SDS011;469;48.770;9.176;2022-11-02T05:23:34;8.90;;;2.88;;
962;SDS011;469;48.770;9.176;2022-11-02T05:26:03;11.68;;;2.35;;
962;SDS011;469;48.770;9.176;2022-11-02T05:28:32;9.73;;;3.40;;
962;SDS011;469;48.770;9.176;2022-11-02T05:31:00;9.32;;;2.50;;
962;SDS011;469;48.770;9.176;2022-11-02T05:33:30;5.68;;;2.15;;
962;SDS011;469;48.770;9.176;2022-11-02T05:35:59;7.40;;;2.55;;
962;SDS011;469;48.770;9.176;2022-11-02T05:48:59;14.13;;;2.72;;
962;SDS011;469;48.770;9.176;2022-11-02T05:51:31;9.00;;;2.55;;
962;SDS011;469;48.770;9.176;2022-11-02T05:54:07;16.40;;;3.33;;
962;SDS011;469;48.770;9.176;2022-11-02T05:56:35;17.17;;;2.70;;
962;SDS011;469;48.770;9.176;2022-11-02T05:59:02;8.20;;;2.78;;
962;SDS011;469;48.770;9.176;2022-11-02T06:01:30;5.88;;;2.28;;
962;SDS011;469;48.770;9.176;2022-11-02T06:03:59;8.55;;;2.53;;
962;SDS011;469;48.770;9.176;2022-11-02T06:06:35;10.05;;;2.40;;
962;SDS011;469;48.770;9.176;2022-11-02T06:09:14;5.25;;;2.05;;
962;SDS011;469;48.770;9.176;2022-11-02T06:11:42;9.77;;;2.28;;
962;SDS011;469;48.770;9.176;2022-11-02T06:14:10;16.88;;;2.83;;
962;SDS011;469;48.770;9.176;2022-11-02T06:16:44;10.80;;;2.80;;
962;SDS011;469;48.770;9.176;2022-11-02T06:19:17;7.85;;;1.98;;
962;SDS011;469;48.770;9.176;2022-11-02T06:22:00;5.90;;;2.05;;
962;SDS011;469;48.770;9.176;2022-11-02T06:24:30;14.18;;;2.17;;
962;SDS011;469;48.770;9.176;2022-11-02T06:27:00;14.18;;;2.63;;
962;SDS011;469;48.770;9.176;2022-11-02T06:29:32;7.95;;;2.60;;
962;SDS011;469;48.770;9.176;2022-11-02T06:32:00;9.98;;;2.60;;
962;SDS011;469;48.770;9.176;2022-11-02T06:34:35;12.45;;;2.60;;
962;SDS011;469;48.770;9.176;2022-11-02T06:37:05;6.72;;;1.98;;
962;SDS011;469;48.770;9.176;2022-11-02T06:39:38;7.15;;;2.20;;
962;SDS011;469;48.770;9.176;2022-11-02T06:42:06;7.60;;;3.17;;
962;SDS011;469;48.770;9.176;2022-11-02T06:44:36;9.32;;;2.50;;
962;SDS011;469;48.770;9.176;2022-11-02T06:47:09;10.93;;;3.13;;
962;SDS011;469;48.770;9.176;2022-11-02T06:52:20;6.80;;;2.13;;
962;SDS011;469;48.770;9.176;2022-11-02T06:54:47;11.25;;;3.78;;
962;SDS011;469;48.770;9.176;2022-11-02T06:57:16;10.30;;;3.17;;
962;SDS011;469;48.770;9.176;2022-11-02T06:59:50;12.35;;;2.60;;
962;SDS011;469;48.770;9.176;2022-11-02T09:58:10;9.70;;;1.73;;
962;SDS011;469;48.770;9.176;2022-11-02T11:07:14;10.57;;;2.13;;
962;SDS011;469;48.770;9.176;2022-11-02T11:15:50;9.13;;;2.00;;
962;SDS011;469;48.770;9.176;2022-11-02T11:18:32;8.50;;;1.95;;
962;SDS011;469;48.770;9.176;2022-11-02T11:20:59;8.48;;;1.67;;
962;SDS011;469;48.770;9.176;2022-11-02T11:23:28;11.02;;;1.80;;
962;SDS011;469;48.770;9.176;2022-11-02T11:25:57;8.95;;;2.47;;
962;SDS011;469;48.770;9.176;2022-11-02T13:48:54;6.82;;;1.70;;
962;SDS011;469;48.770;9.176;2022-11-02T13:51:27;11.57;;;1.80;;
962;SDS011;469;48.770;9.176;2022-11-02T13:53:59;9.25;;;1.88;;
962;SDS011;469;48.770;9.176;2022-11-02T13:56:27;17.42;;;2.15;;
962;SDS011;469;48.770;9.176;2022-11-02T13:58:56;9.48;;;2.38;;
962;SDS011;469;48.770;9.176;2022-11-02T14:01:24;5.00;;;1.40;;
962;SDS011;469;48.770;9.176;2022-11-02T14:03:55;7.00;;;1.73;;
962;SDS011;469;48.770;9.176;2022-11-02T14:06:24;9.85;;;2.10;;
962;SDS011;469;48.770;9.176;2022-11-02T14:08:53;9.63;;;2.05;;
962;SDS011;469;48.770;9.176;2022-11-02T14:14:21;10.55;;;1.77;;
962;SDS011;469;48.770;9.176;2022-11-02T14:16:58;15.73;;;1.95;;
962;SDS011;469;48.770;9.176;2022-11-02T14:19:54;15.90;;;2.10;;
962;SDS011;469;48.770;9.176;2022-11-02T14:22:28;9.13;;;1.80;;
962;SDS011;469;48.770;9.176;2022-11-02T14:27:44;10.27;;;2.58;;
962;SDS011;469;48.770;9.176;2022-11-02T14:32:58;18.88;;;2.83;;
962;SDS011;469;48.770;9.176;2022-11-02T14:35:35;11.60;;;3.00;;
962;SDS011;469;48.770;9.176;2022-11-02T14:38:09;15.90;;;2.40;;
962;SDS011;469;48.770;9.176;2022-11-02T14:40:43;12.52;;;2.67;;
962;SDS011;469;48.770;9.176;2022-11-02T14:46:13;11.00;;;2.38;;
962;SDS011;469;48.770;9.176;2022-11-02T14:48:43;8.70;;;2.03;;
962;SDS011;469;48.770;9.176;2022-11-02T14:51:14;12.40;;;2.00;;
962;SDS011;469;48.770;9.176;2022-11-02T14:53:42;19.60;;;2.20;;
962;SDS011;469;48.770;9.176;2022-11-02T14:56:09;9.18;;;1.80;;
962;SDS011;469;48.770;9.176;2022-11-02T14:58:37;13.15;;;2.83;;
962;SDS011;469;48.770;9.176;2022-11-02T15:01:05;11.65;;;1.85;;
962;SDS011;469;48.770;9.176;2022-11-02T15:03:38;8.00;;;1.50;;
962;SDS011;469;48.770;9.176;2022-11-02T15:06:12;11.68;;;2.50;;
962;SDS011;469;48.770;9.176;2022-11-02T15:08:48;13.85;;;2.35;;
962;SDS011;469;48.770;9.176;2022-11-02T15:14:02;7.82;;;2.20;;
962;SDS011;469;48.770;9.176;2022-11-02T15:16:51;13.00;;;2.50;;
962;SDS011;469;48.770;9.176;2022-11-02T15:24:44;14.80;;;2.42;;
962;SDS011;469;48.770;9.176;2022-11-02T15:27:12;16.35;;;2.50;;
962;SDS011;469;48.770;9.176;2022-11-02T15:29:40;10.48;;;2.75;;
962;SDS011;469;48.770;9.176;2022-11-02T15:32:11;11.68;;;2.60;;
962;SDS011;469;48.770;9.176;2022-11-02T15:34:41;15.98;;;2.80;;
962;SDS011;469;48.770;9.176;2022-11-02T15:37:10;19.05;;;4.28;;
962;SDS011;469;48.770;9.176;2022-11-02T15:39:48;14.43;;;3.10;;
962;SDS011;469;48.770;9.176;2022-11-02T15:42:18;10.68;;;2.45;;
962;SDS011;469;48.770;9.176;2022-11-02T15:44:52;10.98;;;2.00;;
962;SDS011;469;48.770;9.176;2022-11-02T15:47:22;11.48;;;2.97;;
962;SDS011;469;48.770;9.176;2022-11-02T15:49:59;10.90;;;3.00;;
962;SDS011;469;48.770;9.176;2022-11-02T15:52:37;16.67;;;3.42;;
962;SDS011;469;48.770;9.176;2022-11-02T15:55:07;9.65;;;2.83;;
962;SDS011;469;48.770;9.176;2022-11-02T15:57:40;10.73;;;3.05;;
962;SDS011;469;48.770;9.176;2022-11-02T16:00:11;11.95;;;4.20;;
962;SDS011;469;48.770;9.176;2022-11-02T16:02:39;10.40;;;2.60;;
962;SDS011;469;48.770;9.176;2022-11-02T16:05:14;11.85;;;2.63;;
962;SDS011;469;48.770;9.176;2022-11-02T16:07:44;14.55;;;3.05;;
962;SDS011;469;48.770;9.176;2022-11-02T16:10:24;9.98;;;3.60;;
962;SDS011;469;48.770;9.176;2022-11-02T16:12:55;10.25;;;2.70;;
962;SDS011;469;48.770;9.176;2022-11-02T16:15:22;23.63;;;3.97;;
962;SDS011;469;48.770;9.176;2022-11-02T16:17:49;14.43;;;3.50;;
962;SDS011;469;48.770;9.176;2022-11-02T16:20:18;9.48;;;2.83;;
962;SDS011;469;48.770;9.176;2022-11-02T16:22:46;19.88;;;4.05;;
962;SDS011;469;48.770;9.176;2022-11-02T16:25:15;18.92;;;4.88;;
962;SDS011;469;48.770;9.176;2022-11-02T16:27:44;14.27;;;4.20;;
962;SDS011;469;48.770;9.176;2022-11-02T16:30:16;12.07;;;3.22;;
962;SDS011;469;48.770;9.176;2022-11-02T16:32:43;16.42;;;4.20;;
962;SDS011;469;48.770;9.176;2022-11-02T16:35:12;18.52;;;4.43;;
962;SDS011;469;48.770;9.176;2022-11-02T16:37:40;33.00;;;4.60;;
962;SDS011;469;48.770;9.176;2022-11-02T16:40:12;17.30;;;3.90;;
962;SDS011;469;48.770;9.176;2022-11-02T16:42:41;15.60;;;3.65;;
962;SDS011;469;48.770;9.176;2022-11-02T16:45:27;19.85;;;3.40;;
962;SDS011;469;48.770;9.176;2022-11-02T16:47:55;16.63;;;4.13;;
962;SDS011;469;48.770;9.176;2022-11-02T16:50:22;13.40;;;3.35;;
962;SDS011;469;48.770;9.176;2022-11-02T16:52:53;19.17;;;3.85;;
962;SDS011;469;48.770;9.176;2022-11-02T16:55:28;12.65;;;4.00;;
962;SDS011;469;48.770;9.176;2022-11-02T16:57:55;14.95;;;2.80;;
962;SDS011;469;48.770;9.176;2022-11-02T17:00:28;22.77;;;3.25;;
962;SDS011;469;48.770;9.176;2022-11-02T17:02:55;19.85;;;4.03;;
962;SDS011;469;48.770;9.176;2022-11-02T17:05:23;18.25;;;3.28;;
962;SDS011;469;48.770;9.176;2022-11-02T17:07:54;12.48;;;3.38;;
962;SDS011;469;48.770;9.176;2022-11-02T17:10:25;18.08;;;3.40;;
962;SDS011;469;48.770;9.176;2022-11-02T17:12:53;17.63;;;3.40;;
962;SDS011;469;48.770;9.176;2022-11-02T17:15:21;21.20;;;3.00;;
962;SDS011;469;48.770;9.176;2022-11-02T17:17:50;10.13;;;3.25;;
962;SDS011;469;48.770;9.176;2022-11-02T17:20:37;8.80;;;3.20;;
962;SDS011;469;48.770;9.176;2022-11-02T17:23:05;12.40;;;3.30;;
962;SDS011;469;48.770;9.176;2022-11-02T17:25:33;14.77;;;4.22;;
962;SDS011;469;48.770;9.176;2022-11-02T17:28:01;14.48;;;3.25;;
962;SDS011;469;48.770;9.176;2022-11-02T17:30:42;13.68;;;3.65;;
962;SDS011;469;48.770;9.176;2022-11-02T17:33:24;18.17;;;3.60;;
962;SDS011;469;48.770;9.176;2022-11-02T17:35:52;23.45;;;4.68;;
962;SDS011;469;48.770;9.176;2022-11-02T17:38:23;17.05;;;2.78;;
962;SDS011;469;48.770;9.176;2022-11-02T17:40:50;20.23;;;3.78;;
962;SDS011;469;48.770;9.176;2022-11-02T17:43:18;14.88;;;3.63;;
962;SDS011;469;48.770;9.176;2022-11-02T17:45:44;20.70;;;3.75;;
962;SDS011;469;48.770;9.176;2022-11-02T17:48:11;12.23;;;4.20;;
962;SDS011;469;48.770;9.176;2022-11-02T17:50:41;17.90;;;4.45;;
962;SDS011;469;48.770;9.176;2022-11-02T17:53:09;29.42;;;4.60;;
962;SDS011;469;48.770;9.176;2022-11-02T17:55:37;14.63;;;4.75;;
962;SDS011;469;48.770;9.176;2022-11-02T17:58:05;24.85;;;4.85;;
962;SDS011;469;48.770;9.176;2022-11-02T18:00:33;16.40;;;4.00;;
962;SDS011;469;48.770;9.176;2022-11-02T18:03:01;17.42;;;4.63;;
962;SDS011;469;48.770;9.176;2022-11-02T18:05:29;14.52;;;4.50;;
962;SDS011;469;48.770;9.176;2022-11-02T18:07:58;22.75;;;5.10;;
962;SDS011;469;48.770;9.176;2022-11-02T18:10:26;14.73;;;5.05;;
962;SDS011;469;48.770;9.176;2022-11-02T18:12:54;13.82;;;5.38;;
962;SDS011;469;48.770;9.176;2022-11-02T18:15:22;17.85;;;6.32;;
962;SDS011;469;48.770;9.176;2022-11-02T18:17:49;16.45;;;4.78;;
962;SDS011;469;48.770;9.176;2022-11-02T18:20:19;22.20;;;5.13;;
962;SDS011;469;48.770;9.176;2022-11-02T18:22:46;15.63;;;4.50;;
962;SDS011;469;48.770;9.176;2022-11-02T18:25:15;19.35;;;4.72;;
962;SDS011;469;48.770;9.176;2022-11-02T18:27:43;18.38;;;4.60;;
962;SDS011;469;48.770;9.176;2022-11-02T18:30:11;17.52;;;5.25;;
962;SDS011;469;48.770;9.176;2022-11-02T18:32:40;15.98;;;4.63;;
962;SDS011;469;48.770;9.176;2022-11-02T18:35:08;14.75;;;4.80;;
962;SDS011;469;48.770;9.176;2022-11-02T18:37:36;20.05;;;5.32;;
962;SDS011;469;48.770;9.176;2022-11-02T18:40:03;28.15;;;5.22;;
962;SDS011;469;48.770;9.176;2022-11-02T18:42:32;17.95;;;4.90;;
962;SDS011;469;48.770;9.176;2022-11-02T18:45:01;20.15;;;4.28;;
962;SDS011;469;48.770;9.176;2022-11-02T18:47:28;20.85;;;4.97;;
962;SDS011;469;48.770;9.176;2022-11-02T18:49:55;12.95;;;4.20;;
962;SDS011;469;48.770;9.176;2022-11-02T18:52:24;21.75;;;4.80;;
962;SDS011;469;48.770;9.176;2022-11-02T18:54:51;21.42;;;5.07;;
962;SDS011;469;48.770;9.176;2022-11-02T18:57:18;33.35;;;8.50;;
962;SDS011;469;48.770;9.176;2022-11-02T18:59:47;24.13;;;5.97;;
962;SDS011;469;48.770;9.176;2022-11-02T19:02:14;18.95;;;4.82;;
962;SDS011;469;48.770;9.176;2022-11-02T19:04:41;27.42;;;5.35;;
962;SDS011;469;48.770;9.176;2022-11-02T19:07:09;27.25;;;6.75;;
962;SDS011;469;48.770;9.176;2022-11-02T19:09:59;24.88;;;6.15;;
962;SDS011;469;48.770;9.176;2022-11-02T19:12:27;19.95;;;5.75;;
962;SDS011;469;48.770;9.176;2022-11-02T19:14:56;11.60;;;5.38;;
962;SDS011;469;48.770;9.176;2022-11-02T19:17:24;17.38;;;5.13;;
962;SDS011;469;48.770;9.176;2022-11-02T19:19:51;22.20;;;6.03;;
962;SDS011;469;48.770;9.176;2022-11-02T19:22:19;19.83;;;5.30;;
962;SDS011;469;48.770;9.176;2022-11-02T19:24:46;17.40;;;4.97;;
962;SDS011;469;48.770;9.176;2022-11-02T19:27:13;16.30;;;4.78;;
962;SDS011;469;48.770;9.176;2022-11-02T19:29:41;18.42;;;4.82;;
962;SDS011;469;48.770;9.176;2022-11-02T19:32:09;22.10;;;5.70;;
962;SDS011;469;48.770;9.176;2022-11-02T19:34:36;18.38;;;4.72;;
962;SDS011;469;48.770;9.176;2022-11-02T19:37:04;18.40;;;5.03;;
962;SDS011;469;48.770;9.176;2022-11-02T19:39:31;23.13;;;6.72;;
962;SDS011;469;48.770;9.176;2022-11-02T19:41:58;23.08;;;4.65;;
962;SDS011;469;48.770;9.176;2022-11-02T19:44:27;24.48;;;5.85;;
962;SDS011;469;48.770;9.176;2022-11-02T19:46:54;21.17;;;5.75;;
962;SDS011;469;48.770;9.176;2022-11-02T19:49:23;18.52;;;6.05;;
962;SDS011;469;48.770;9.176;2022-11-02T19:51:50;27.25;;;5.30;;
962;SDS011;469;48.770;9.176;2022-11-02T19:59:36;20.08;;;5.90;;
962;SDS011;469;48.770;9.176;2022-11-02T20:02:20;26.35;;;6.90;;
962;SDS011;469;48.770;9.176;2022-11-02T20:05:14;42.33;;;10.43;;
962;SDS011;469;48.770;9.176;2022-11-02T20:07:55;25.65;;;6.10;;
962;SDS011;469;48.770;9.176;2022-11-02T20:10:45;29.02;;;7.22;;
962;SDS011;469;48.770;9.176;2022-11-02T20:13:36;22.40;;;6.85;;
962;SDS011;469;48.770;9.176;2022-11-02T20:16:15;21.23;;;6.20;;
962;SDS011;469;48.770;9.176;2022-11-02T20:19:04;20.48;;;5.28;;
962;SDS011;469;48.770;9.176;2022-11-02T20:21:52;22.10;;;6.18;;
962;SDS011;469;48.770;9.176;2022-11-02T20:25:45;16.27;;;6.00;;
962;SDS011;469;48.770;9.176;2022-11-02T20:30:07;16.80;;;5.95;;
962;SDS011;469;48.770;9.176;2022-11-02T20:32:35;20.13;;;4.82;;
962;SDS011;469;48.770;9.176;2022-11-02T20:35:02;15.27;;;4.47;;
962;SDS011;469;48.770;9.176;2022-11-02T20:37:32;12.57;;;4.50;;
962;SDS011;469;48.770;9.176;2022-11-02T20:40:03;20.45;;;6.13;;
962;SDS011;469;48.770;9.176;2022-11-02T20:42:31;27.13;;;6.35;;
962;SDS011;469;48.770;9.176;2022-11-02T20:44:58;18.77;;;5.30;;
962;SDS011;469;48.770;9.176;2022-11-02T20:47:25;18.77;;;6.05;;
962;SDS011;469;48.770;9.176;2022-11-02T20:49:57;23.48;;;5.43;;
962;SDS011;469;48.770;9.176;2022-11-02T20:52:25;32.83;;;6.70;;
962;SDS011;469;48.770;9.176;2022-11-02T20:54:53;22.30;;;5.53;;
962;SDS011;469;48.770;9.176;2022-11-02T20:57:20;13.60;;;4.97;;
962;SDS011;469;48.770;9.176;2022-11-02T20:59:49;18.17;;;5.75;;
962;SDS011;469;48.770;9.176;2022-11-02T21:02:16;15.13;;;5.03;;
962;SDS011;469;48.770;9.176;2022-11-02T21:04:46;17.02;;;6.43;;
962;SDS011;469;48.770;9.176;2022-11-02T21:07:13;15.63;;;4.68;;
962;SDS011;469;48.770;9.176;2022-11-02T21:09:40;19.05;;;5.32;;
962;SDS011;469;48.770;9.176;2022-11-02T21:12:09;17.17;;;5.68;;
962;SDS011;469;48.770;9.176;2022-11-02T21:14:56;18.05;;;6.55;;
962;SDS011;469;48.770;9.176;2022-11-02T21:17:23;23.55;;;6.28;;
962;SDS011;469;48.770;9.176;2022-11-02T21:19:50;25.08;;;6.40;;
962;SDS011;469;48.770;9.176;2022-11-02T21:22:17;22.23;;;7.80;;
962;SDS011;469;48.770;9.176;2022-11-02T21:24:44;19.00;;;5.80;;
962;SDS011;469;48.770;9.176;2022-11-02T21:27:12;17.88;;;5.70;;
962;SDS011;469;48.770;9.176;2022-11-02T21:29:39;15.75;;;5.85;;
962;SDS011;469;48.770;9.176;2022-11-02T21:32:06;20.73;;;5.50;;
962;SDS011;469;48.770;9.176;2022-11-02T21:34:34;14.55;;;5.40;;
962;SDS011;469;48.770;9.176;2022-11-02T21:37:01;18.60;;;6.00;;
962;SDS011;469;48.770;9.176;2022-11-02T21:39:30;18.40;;;6.20;;
962;SDS011;469;48.770;9.176;2022-11-02T21:41:57;19.02;;;6.47;;
962;SDS011;469;48.770;9.176;2022-11-02T21:44:26;18.38;;;7.72;;
962;SDS011;469;48.770;9.176;2022-11-02T21:46:53;15.63;;;5.50;;
962;SDS011;469;48.770;9.176;2022-11-02T21:49:21;23.65;;;8.45;;
962;SDS011;469;48.770;9.176;2022-11-02T21:51:48;24.60;;;7.70;;
962;SDS011;469;48.770;9.176;2022-11-02T21:54:15;24.52;;;6.15;;
962;SDS011;469;48.770;9.176;2022-11-02T21:56:42;19.67;;;6.30;;
962;SDS011;469;48.770;9.176;2022-11-02T21:59:10;12.98;;;5.30;;
962;SDS011;469;48.770;9.176;2022-11-02T22:01:38;15.77;;;5.95;;
962;SDS011;469;48.770;9.176;2022-11-02T22:04:14;25.90;;;6.13;;
962;SDS011;469;48.770;9.176;2022-11-02T22:06:43;13.90;;;4.95;;
962;SDS011;469;48.770;9.176;2022-11-02T22:09:11;17.42;;;6.57;;
962;SDS011;469;48.770;9.176;2022-11-02T22:11:38;17.98;;;5.50;;
962;SDS011;469;48.770;9.176;2022-11-02T22:14:06;17.40;;;5.85;;
962;SDS011;469;48.770;9.176;2022-11-02T22:16:33;16.45;;;5.38;;
962;SDS011;469;48.770;9.176;2022-11-02T22:19:03;23.67;;;5.95;;
962;SDS011;469;48.770;9.176;2022-11-02T22:21:34;15.63;;;5.00;;
962;SDS011;469;48.770;9.176;2022-11-02T22:24:06;13.85;;;4.50;;
962;SDS011;469;48.770;9.176;2022-11-02T22:26:36;16.02;;;5.50;;
962;SDS011;469;48.770;9.176;2022-11-02T22:29:04;17.60;;;7.05;;
962;SDS011;469;48.770;9.176;2022-11-02T22:31:32;22.00;;;8.50;;
962;SDS011;469;48.770;9.176;2022-11-02T22:34:00;18.63;;;5.68;;
962;SDS011;469;48.770;9.176;2022-11-02T22:36:29;21.15;;;4.75;;
962;SDS011;469;48.770;9.176;2022-11-02T22:38:57;23.85;;;5.50;;
962;SDS011;469;48.770;9.176;2022-11-02T22:41:23;19.52;;;5.47;;
962;SDS011;469;48.770;9.176;2022-11-02T22:43:51;19.20;;;5.80;;
962;SDS011;469;48.770;9.176;2022-11-02T22:46:19;19.45;;;5.35;;
962;SDS011;469;48.770;9.176;2022-11-02T22:48:46;14.15;;;4.95;;
962;SDS011;469;48.770;9.176;2022-11-02T22:51:13;27.90;;;6.45;;
962;SDS011;469;48.770;9.176;2022-11-02T22:53:41;17.88;;;5.57;;
962;SDS011;469;48.770;9.176;2022-11-02T22:56:11;16.33;;;5.03;;
962;SDS011;469;48.770;9.176;2022-11-02T22:58:39;11.60;;;4.88;;
962;SDS011;469;48.770;9.176;2022-11-02T23:01:07;21.25;;;6.75;;
962;SDS011;469;48.770;9.176;2022-11-02T23:03:35;20.05;;;4.90;;
962;SDS011;469;48.770;9.176;2022-11-02T23:06:02;17.95;;;5.45;;